Terminal Aerodrome Forecast
Issued by NWS

Home | Current Version | Previous Version | Text Only | Print | Product List | Glossary On
Versions: 1 2 3 4 5 6 7 8 9 10 11 12 13 14 15 16 17 18 19 20 21
932
FTUS43 KAPX 141502 AAA
TAFTVC
TAF AMD
KTVC 141502Z 1415/1512 VRB03KT P6SM -SHSN SCT019 OVC035
      TEMPO 1415/1416 2SM -SHSN BKN014
     FM141600 29006KT P6SM -SHSN OVC028
     FM142000 25007KT P6SM OVC035
     FM150700 24005KT 2SM -SHSN OVC025=

USA.gov is the U.S. government's official web portal to all federal, state and local government web resources and services.